sensor_id;sensor_type;location;lat;lon;timestamp;temperature;humidity
10911;DHT22;5508;49.150;11.030;2023-08-30T00:02:45;11.80;99.90
10911;DHT22;5508;49.150;11.030;2023-08-30T00:05:45;11.70;99.90
10911;DHT22;5508;49.150;11.030;2023-08-30T00:08:46;11.70;99.90
10911;DHT22;5508;49.150;11.030;2023-08-30T00:11:47;11.70;99.90
10911;DHT22;5508;49.150;11.030;2023-08-30T00:14:47;11.70;99.90
10911;DHT22;5508;49.150;11.030;2023-08-30T00:17:48;11.60;99.90
10911;DHT22;5508;49.150;11.030;2023-08-30T00:20:49;11.70;99.90
10911;DHT22;5508;49.150;11.030;2023-08-30T00:23:49;11.60;99.90
10911;DHT22;5508;49.150;11.030;2023-08-30T00:26:50;11.50;99.90
10911;DHT22;5508;49.150;11.030;2023-08-30T00:29:50;11.50;99.90
10911;DHT22;5508;49.150;11.030;2023-08-30T00:32:51;11.50;99.90
10911;DHT22;5508;49.150;11.030;2023-08-30T00:35:58;11.50;99.90
10911;DHT22;5508;49.150;11.030;2023-08-30T00:38:59;11.50;99.90
10911;DHT22;5508;49.150;11.030;2023-08-30T00:42:00;11.50;99.90
10911;DHT22;5508;49.150;11.030;2023-08-30T00:45:05;11.40;99.90
10911;DHT22;5508;49.150;11.030;2023-08-30T00:48:06;11.50;99.90
10911;DHT22;5508;49.150;11.030;2023-08-30T00:51:07;11.40;99.90
10911;DHT22;5508;49.150;11.030;2023-08-30T00:54:08;11.50;99.90
10911;DHT22;5508;49.150;11.030;2023-08-30T00:57:08;11.50;99.90
10911;DHT22;5508;49.150;11.030;2023-08-30T01:00:10;11.50;99.90
10911;DHT22;5508;49.150;11.030;2023-08-30T01:03:11;11.40;99.90
10911;DHT22;5508;49.150;11.030;2023-08-30T01:06:11;11.40;99.90
10911;DHT22;5508;49.150;11.030;2023-08-30T01:09:14;11.40;99.90
10911;DHT22;5508;49.150;11.030;2023-08-30T01:12:22;11.40;99.90
10911;DHT22;5508;49.150;11.030;2023-08-30T01:15:25;11.40;99.90
10911;DHT22;5508;49.150;11.030;2023-08-30T01:18:32;11.50;99.90
10911;DHT22;5508;49.150;11.030;2023-08-30T01:28:36;11.40;99.90
10911;DHT22;5508;49.150;11.030;2023-08-30T01:31:38;11.40;99.90
10911;DHT22;5508;49.150;11.030;2023-08-30T01:34:41;11.30;99.90
10911;DHT22;5508;49.150;11.030;2023-08-30T01:37:44;11.30;99.90
10911;DHT22;5508;49.150;11.030;2023-08-30T01:40:46;11.40;99.90
10911;DHT22;5508;49.150;11.030;2023-08-30T01:43:49;11.40;99.90
10911;DHT22;5508;49.150;11.030;2023-08-30T01:46:50;11.40;99.90
10911;DHT22;5508;49.150;11.030;2023-08-30T01:49:51;11.40;99.90
10911;DHT22;5508;49.150;11.030;2023-08-30T01:52:52;11.40;99.90
10911;DHT22;5508;49.150;11.030;2023-08-30T01:55:53;11.30;99.90
10911;DHT22;5508;49.150;11.030;2023-08-30T01:58:53;11.30;99.90
10911;DHT22;5508;49.150;11.030;2023-08-30T02:01:54;11.30;99.90
10911;DHT22;5508;49.150;11.030;2023-08-30T02:04:55;11.40;99.90
10911;DHT22;5508;49.150;11.030;2023-08-30T02:08:02;11.30;99.90
10911;DHT22;5508;49.150;11.030;2023-08-30T02:11:14;11.40;99.90
10911;DHT22;5508;49.150;11.030;2023-08-30T02:14:18;11.40;99.90
10911;DHT22;5508;49.150;11.030;2023-08-30T02:17:20;11.50;99.90
10911;DHT22;5508;49.150;11.030;2023-08-30T02:20:21;11.50;99.90
10911;DHT22;5508;49.150;11.030;2023-08-30T02:23:25;11.50;99.90
10911;DHT22;5508;49.150;11.030;2023-08-30T02:26:26;11.50;99.90
10911;DHT22;5508;49.150;11.030;2023-08-30T02:29:26;11.60;99.90
10911;DHT22;5508;49.150;11.030;2023-08-30T02:32:27;11.60;99.90
10911;DHT22;5508;49.150;11.030;2023-08-30T02:35:27;11.70;99.90
10911;DHT22;5508;49.150;11.030;2023-08-30T02:38:28;11.60;99.90
10911;DHT22;5508;49.150;11.030;2023-08-30T02:41:28;11.70;99.90
10911;DHT22;5508;49.150;11.030;2023-08-30T02:44:29;11.70;99.90
10911;DHT22;5508;49.150;11.030;2023-08-30T02:47:30;11.70;99.90
10911;DHT22;5508;49.150;11.030;2023-08-30T02:50:30;11.70;99.90
10911;DHT22;5508;49.150;11.030;2023-08-30T02:53:31;11.70;99.90
10911;DHT22;5508;49.150;11.030;2023-08-30T02:56:32;11.80;99.90
10911;DHT22;5508;49.150;11.030;2023-08-30T02:59:32;11.70;99.90
10911;DHT22;5508;49.150;11.030;2023-08-30T03:02:33;11.60;99.90
10911;DHT22;5508;49.150;11.030;2023-08-30T03:05:34;11.60;99.90
10911;DHT22;5508;49.150;11.030;2023-08-30T03:08:34;11.60;99.90
10911;DHT22;5508;49.150;11.030;2023-08-30T03:11:35;11.60;99.90
10911;DHT22;5508;49.150;11.030;2023-08-30T03:14:35;11.60;99.90
10911;DHT22;5508;49.150;11.030;2023-08-30T03:17:36;11.60;99.90
10911;DHT22;5508;49.150;11.030;2023-08-30T03:20:37;11.70;99.90
10911;DHT22;5508;49.150;11.030;2023-08-30T03:23:38;11.70;99.90
10911;DHT22;5508;49.150;11.030;2023-08-30T03:26:38;11.70;99.90
10911;DHT22;5508;49.150;11.030;2023-08-30T03:29:41;11.70;99.90
10911;DHT22;5508;49.150;11.030;2023-08-30T03:32:41;11.70;99.90
10911;DHT22;5508;49.150;11.030;2023-08-30T03:35:42;11.70;99.90
10911;DHT22;5508;49.150;11.030;2023-08-30T03:38:43;11.70;99.90
10911;DHT22;5508;49.150;11.030;2023-08-30T03:41:44;11.70;99.90
10911;DHT22;5508;49.150;11.030;2023-08-30T03:44:46;11.80;99.90
10911;DHT22;5508;49.150;11.030;2023-08-30T03:47:46;11.80;99.90
10911;DHT22;5508;49.150;11.030;2023-08-30T03:50:47;11.80;99.90
10911;DHT22;5508;49.150;11.030;2023-08-30T03:53:47;11.80;99.90
10911;DHT22;5508;49.150;11.030;2023-08-30T03:56:48;11.80;99.90
10911;DHT22;5508;49.150;11.030;2023-08-30T03:59:48;11.80;99.90
10911;DHT22;5508;49.150;11.030;2023-08-30T04:02:49;11.80;99.90
10911;DHT22;5508;49.150;11.030;2023-08-30T04:05:55;11.80;99.90
10911;DHT22;5508;49.150;11.030;2023-08-30T04:08:56;11.80;99.90
10911;DHT22;5508;49.150;11.030;2023-08-30T04:11:57;11.80;99.90
10911;DHT22;5508;49.150;11.030;2023-08-30T04:14:58;11.80;99.90
10911;DHT22;5508;49.150;11.030;2023-08-30T04:17:59;11.80;99.90
10911;DHT22;5508;49.150;11.030;2023-08-30T04:20:59;11.70;99.90
10911;DHT22;5508;49.150;11.030;2023-08-30T04:24:02;11.70;99.90
10911;DHT22;5508;49.150;11.030;2023-08-30T04:27:04;11.70;99.90
10911;DHT22;5508;49.150;11.030;2023-08-30T04:30:05;11.70;99.90
10911;DHT22;5508;49.150;11.030;2023-08-30T04:33:05;11.80;99.90
10911;DHT22;5508;49.150;11.030;2023-08-30T04:36:06;11.80;99.90
10911;DHT22;5508;49.150;11.030;2023-08-30T04:39:08;11.80;99.90
10911;DHT22;5508;49.150;11.030;2023-08-30T04:42:08;11.70;99.90
10911;DHT22;5508;49.150;11.030;2023-08-30T04:45:09;11.70;99.90
10911;DHT22;5508;49.150;11.030;2023-08-30T04:48:10;11.80;99.90
10911;DHT22;5508;49.150;11.030;2023-08-30T04:51:10;11.80;99.90
10911;DHT22;5508;49.150;11.030;2023-08-30T04:54:11;11.80;99.90
10911;DHT22;5508;49.150;11.030;2023-08-30T04:57:12;11.90;99.90
10911;DHT22;5508;49.150;11.030;2023-08-30T05:00:17;11.90;99.90
10911;DHT22;5508;49.150;11.030;2023-08-30T05:03:19;12.00;99.90
10911;DHT22;5508;49.150;11.030;2023-08-30T05:06:19;11.90;99.90
10911;DHT22;5508;49.150;11.030;2023-08-30T05:09:20;11.90;99.90
10911;DHT22;5508;49.150;11.030;2023-08-30T05:12:25;11.90;99.90
10911;DHT22;5508;49.150;11.030;2023-08-30T05:15:25;11.90;99.90
10911;DHT22;5508;49.150;11.030;2023-08-30T05:18:26;11.90;99.90
10911;DHT22;5508;49.150;11.030;2023-08-30T05:21:26;12.00;99.90
10911;DHT22;5508;49.150;11.030;2023-08-30T05:24:27;12.00;99.90
10911;DHT22;5508;49.150;11.030;2023-08-30T05:27:28;12.00;99.90
10911;DHT22;5508;49.150;11.030;2023-08-30T05:30:29;12.00;99.90
10911;DHT22;5508;49.150;11.030;2023-08-30T05:33:30;12.10;99.90
10911;DHT22;5508;49.150;11.030;2023-08-30T05:36:30;12.10;99.90
10911;DHT22;5508;49.150;11.030;2023-08-30T05:39:31;12.20;99.90
10911;DHT22;5508;49.150;11.030;2023-08-30T05:42:31;12.20;99.90
10911;DHT22;5508;49.150;11.030;2023-08-30T05:45:32;12.20;99.90
10911;DHT22;5508;49.150;11.030;2023-08-30T05:48:33;12.20;99.90
10911;DHT22;5508;49.150;11.030;2023-08-30T05:51:33;12.30;99.90
10911;DHT22;5508;49.150;11.030;2023-08-30T05:54:34;12.20;99.90
10911;DHT22;5508;49.150;11.030;2023-08-30T05:57:35;12.30;99.90
10911;DHT22;5508;49.150;11.030;2023-08-30T06:00:35;12.30;99.90
10911;DHT22;5508;49.150;11.030;2023-08-30T06:03:36;12.30;99.90
10911;DHT22;5508;49.150;11.030;2023-08-30T06:06:36;12.30;99.90
10911;DHT22;5508;49.150;11.030;2023-08-30T06:09:37;12.40;99.90
10911;DHT22;5508;49.150;11.030;2023-08-30T06:12:38;12.40;99.90
10911;DHT22;5508;49.150;11.030;2023-08-30T06:15:38;12.50;99.90
10911;DHT22;5508;49.150;11.030;2023-08-30T06:18:39;12.60;99.90
10911;DHT22;5508;49.150;11.030;2023-08-30T06:21:40;12.70;99.90
10911;DHT22;5508;49.150;11.030;2023-08-30T06:24:40;12.80;99.90
10911;DHT22;5508;49.150;11.030;2023-08-30T06:27:43;12.80;99.90
10911;DHT22;5508;49.150;11.030;2023-08-30T06:30:43;12.80;99.90
10911;DHT22;5508;49.150;11.030;2023-08-30T06:33:44;12.90;99.90
10911;DHT22;5508;49.150;11.030;2023-08-30T06:36:45;12.90;99.90
10911;DHT22;5508;49.150;11.030;2023-08-30T06:39:45;13.00;99.90
10911;DHT22;5508;49.150;11.030;2023-08-30T06:42:46;13.10;99.90
10911;DHT22;5508;49.150;11.030;2023-08-30T06:45:47;13.30;99.90
10911;DHT22;5508;49.150;11.030;2023-08-30T06:48:47;13.30;99.90
10911;DHT22;5508;49.150;11.030;2023-08-30T06:51:48;13.40;99.90
10911;DHT22;5508;49.150;11.030;2023-08-30T06:54:49;13.30;99.90
10911;DHT22;5508;49.150;11.030;2023-08-30T06:57:50;13.50;99.90
10911;DHT22;5508;49.150;11.030;2023-08-30T07:00:50;13.40;99.90
10911;DHT22;5508;49.150;11.030;2023-08-30T07:03:51;13.30;99.90
10911;DHT22;5508;49.150;11.030;2023-08-30T07:06:55;13.30;99.90
10911;DHT22;5508;49.150;11.030;2023-08-30T07:09:55;13.40;99.90
10911;DHT22;5508;49.150;11.030;2023-08-30T07:12:56;13.40;99.90
10911;DHT22;5508;49.150;11.030;2023-08-30T07:15:56;13.40;99.90
10911;DHT22;5508;49.150;11.030;2023-08-30T07:18:57;13.50;99.90
10911;DHT22;5508;49.150;11.030;2023-08-30T07:21:58;13.60;99.90
10911;DHT22;5508;49.150;11.030;2023-08-30T07:24:59;13.60;99.90
10911;DHT22;5508;49.150;11.030;2023-08-30T07:28:00;13.70;99.90
10911;DHT22;5508;49.150;11.030;2023-08-30T07:31:04;13.90;99.90
10911;DHT22;5508;49.150;11.030;2023-08-30T07:34:05;13.70;99.90
10911;DHT22;5508;49.150;11.030;2023-08-30T07:37:19;13.80;99.90
10911;DHT22;5508;49.150;11.030;2023-08-30T07:40:20;13.80;99.90
10911;DHT22;5508;49.150;11.030;2023-08-30T07:43:24;13.60;99.90
10911;DHT22;5508;49.150;11.030;2023-08-30T07:46:25;13.80;99.90
10911;DHT22;5508;49.150;11.030;2023-08-30T07:49:26;13.90;99.90
10911;DHT22;5508;49.150;11.030;2023-08-30T07:52:27;14.00;99.90
10911;DHT22;5508;49.150;11.030;2023-08-30T07:55:27;14.00;99.90
10911;DHT22;5508;49.150;11.030;2023-08-30T07:58:28;14.20;99.90
10911;DHT22;5508;49.150;11.030;2023-08-30T08:01:29;14.50;99.90
10911;DHT22;5508;49.150;11.030;2023-08-30T08:04:29;14.60;99.90
10911;DHT22;5508;49.150;11.030;2023-08-30T08:07:30;14.70;99.90
10911;DHT22;5508;49.150;11.030;2023-08-30T08:10:33;14.80;99.90
10911;DHT22;5508;49.150;11.030;2023-08-30T08:13:34;14.50;99.90
10911;DHT22;5508;49.150;11.030;2023-08-30T08:16:35;14.40;99.90
10911;DHT22;5508;49.150;11.030;2023-08-30T08:19:35;14.70;99.90
10911;DHT22;5508;49.150;11.030;2023-08-30T08:22:39;15.00;99.90
10911;DHT22;5508;49.150;11.030;2023-08-30T08:25:40;15.20;99.90
10911;DHT22;5508;49.150;11.030;2023-08-30T08:28:41;15.40;99.90
10911;DHT22;5508;49.150;11.030;2023-08-30T08:31:42;15.60;99.90
10911;DHT22;5508;49.150;11.030;2023-08-30T08:34:43;15.90;99.90
10911;DHT22;5508;49.150;11.030;2023-08-30T08:37:43;16.30;99.90
10911;DHT22;5508;49.150;11.030;2023-08-30T08:40:44;17.00;99.90
10911;DHT22;5508;49.150;11.030;2023-08-30T08:43:44;17.00;93.10
10911;DHT22;5508;49.150;11.030;2023-08-30T08:46:47;16.80;91.00
10911;DHT22;5508;49.150;11.030;2023-08-30T08:49:48;16.50;89.80
10911;DHT22;5508;49.150;11.030;2023-08-30T08:52:49;16.40;93.60
10911;DHT22;5508;49.150;11.030;2023-08-30T08:55:52;16.60;95.40
10911;DHT22;5508;49.150;11.030;2023-08-30T08:58:53;16.80;92.80
10911;DHT22;5508;49.150;11.030;2023-08-30T09:01:55;17.00;87.80
10911;DHT22;5508;49.150;11.030;2023-08-30T09:04:56;16.80;91.50
10911;DHT22;5508;49.150;11.030;2023-08-30T09:07:58;16.50;92.40
10911;DHT22;5508;49.150;11.030;2023-08-30T09:11:00;16.50;94.50
10911;DHT22;5508;49.150;11.030;2023-08-30T09:14:01;16.50;95.00
10911;DHT22;5508;49.150;11.030;2023-08-30T09:17:02;16.30;95.40
10911;DHT22;5508;49.150;11.030;2023-08-30T09:20:11;16.40;93.70
10911;DHT22;5508;49.150;11.030;2023-08-30T09:23:19;16.90;95.30
10911;DHT22;5508;49.150;11.030;2023-08-30T09:26:20;16.90;90.00
10911;DHT22;5508;49.150;11.030;2023-08-30T09:29:22;17.10;90.40
10911;DHT22;5508;49.150;11.030;2023-08-30T09:32:23;17.10;87.20
10911;DHT22;5508;49.150;11.030;2023-08-30T09:35:24;17.30;86.20
10911;DHT22;5508;49.150;11.030;2023-08-30T09:38:25;17.50;84.60
10911;DHT22;5508;49.150;11.030;2023-08-30T09:41:26;17.30;84.60
10911;DHT22;5508;49.150;11.030;2023-08-30T09:44:29;17.10;86.80
10911;DHT22;5508;49.150;11.030;2023-08-30T09:47:30;17.50;85.80
10911;DHT22;5508;49.150;11.030;2023-08-30T09:50:35;17.50;83.70
10911;DHT22;5508;49.150;11.030;2023-08-30T09:53:42;17.70;84.00
10911;DHT22;5508;49.150;11.030;2023-08-30T09:56:45;17.70;84.20
10911;DHT22;5508;49.150;11.030;2023-08-30T09:59:46;18.20;83.10
10911;DHT22;5508;49.150;11.030;2023-08-30T10:02:47;18.60;80.10
10911;DHT22;5508;49.150;11.030;2023-08-30T10:05:48;18.90;81.60
10911;DHT22;5508;49.150;11.030;2023-08-30T10:08:49;18.40;76.20
10911;DHT22;5508;49.150;11.030;2023-08-30T10:11:52;18.40;81.10
10911;DHT22;5508;49.150;11.030;2023-08-30T10:14:52;18.10;78.30
10911;DHT22;5508;49.150;11.030;2023-08-30T10:17:54;18.30;78.00
10911;DHT22;5508;49.150;11.030;2023-08-30T10:20:59;18.30;79.00
10911;DHT22;5508;49.150;11.030;2023-08-30T10:24:02;18.30;79.10
10911;DHT22;5508;49.150;11.030;2023-08-30T10:27:05;18.00;79.00
10911;DHT22;5508;49.150;11.030;2023-08-30T10:30:09;18.20;81.80
10911;DHT22;5508;49.150;11.030;2023-08-30T10:33:14;18.40;80.20
10911;DHT22;5508;49.150;11.030;2023-08-30T10:36:23;18.50;77.80
10911;DHT22;5508;49.150;11.030;2023-08-30T10:39:36;18.20;78.50
10911;DHT22;5508;49.150;11.030;2023-08-30T10:42:37;18.20;80.30
10911;DHT22;5508;49.150;11.030;2023-08-30T10:45:37;18.70;77.60
10911;DHT22;5508;49.150;11.030;2023-08-30T10:48:39;18.30;78.30
10911;DHT22;5508;49.150;11.030;2023-08-30T10:51:41;18.50;79.50
10911;DHT22;5508;49.150;11.030;2023-08-30T10:54:41;18.10;78.30
10911;DHT22;5508;49.150;11.030;2023-08-30T10:57:44;18.40;76.80
10911;DHT22;5508;49.150;11.030;2023-08-30T11:00:46;18.40;80.00
10911;DHT22;5508;49.150;11.030;2023-08-30T11:03:47;18.50;78.80
10911;DHT22;5508;49.150;11.030;2023-08-30T11:06:50;18.80;76.00
10911;DHT22;5508;49.150;11.030;2023-08-30T11:09:55;18.50;75.80
10911;DHT22;5508;49.150;11.030;2023-08-30T11:12:56;18.80;76.50
10911;DHT22;5508;49.150;11.030;2023-08-30T11:16:00;18.90;77.00
10911;DHT22;5508;49.150;11.030;2023-08-30T11:19:03;18.30;72.70
10911;DHT22;5508;49.150;11.030;2023-08-30T11:22:03;18.20;78.20
10911;DHT22;5508;49.150;11.030;2023-08-30T11:25:04;18.50;76.30
10911;DHT22;5508;49.150;11.030;2023-08-30T11:28:05;18.70;73.60
10911;DHT22;5508;49.150;11.030;2023-08-30T11:31:06;18.60;75.20
10911;DHT22;5508;49.150;11.030;2023-08-30T11:34:06;18.60;75.80
10911;DHT22;5508;49.150;11.030;2023-08-30T11:37:07;18.80;78.20
10911;DHT22;5508;49.150;11.030;2023-08-30T11:40:11;18.70;76.20
10911;DHT22;5508;49.150;11.030;2023-08-30T11:43:12;18.40;75.80
10911;DHT22;5508;49.150;11.030;2023-08-30T11:46:12;18.20;75.20
10911;DHT22;5508;49.150;11.030;2023-08-30T11:49:13;18.50;78.80
10911;DHT22;5508;49.150;11.030;2023-08-30T11:52:14;18.60;76.70
10911;DHT22;5508;49.150;11.030;2023-08-30T11:55:15;18.80;78.80
10911;DHT22;5508;49.150;11.030;2023-08-30T11:58:18;18.70;75.70
10911;DHT22;5508;49.150;11.030;2023-08-30T12:01:19;18.80;75.40
10911;DHT22;5508;49.150;11.030;2023-08-30T12:04:19;19.10;76.50
10911;DHT22;5508;49.150;11.030;2023-08-30T12:07:24;19.20;75.30
10911;DHT22;5508;49.150;11.030;2023-08-30T12:10:25;19.20;73.90
10911;DHT22;5508;49.150;11.030;2023-08-30T12:16:27;19.30;71.70
10911;DHT22;5508;49.150;11.030;2023-08-30T12:19:28;19.10;72.40
10911;DHT22;5508;49.150;11.030;2023-08-30T12:22:38;19.40;69.10
10911;DHT22;5508;49.150;11.030;2023-08-30T12:25:39;19.30;69.90
10911;DHT22;5508;49.150;11.030;2023-08-30T12:28:41;19.90;69.60
10911;DHT22;5508;49.150;11.030;2023-08-30T12:31:44;19.80;64.30
10911;DHT22;5508;49.150;11.030;2023-08-30T12:34:45;19.80;60.40
10911;DHT22;5508;49.150;11.030;2023-08-30T12:37:45;19.90;70.00
10911;DHT22;5508;49.150;11.030;2023-08-30T12:40:51;19.60;67.20
10911;DHT22;5508;49.150;11.030;2023-08-30T12:43:52;19.50;68.30
10911;DHT22;5508;49.150;11.030;2023-08-30T12:46:53;19.40;67.30
10911;DHT22;5508;49.150;11.030;2023-08-30T12:49:53;19.20;67.20
10911;DHT22;5508;49.150;11.030;2023-08-30T12:52:54;19.20;68.40
10911;DHT22;5508;49.150;11.030;2023-08-30T12:55:54;19.30;65.80
10911;DHT22;5508;49.150;11.030;2023-08-30T12:58:55;19.60;69.50
10911;DHT22;5508;49.150;11.030;2023-08-30T13:01:55;20.00;68.40
10911;DHT22;5508;49.150;11.030;2023-08-30T13:04:56;19.40;65.70
10911;DHT22;5508;49.150;11.030;2023-08-30T13:07:57;19.20;65.80
10911;DHT22;5508;49.150;11.030;2023-08-30T13:10:59;19.00;67.00
10911;DHT22;5508;49.150;11.030;2023-08-30T13:14:00;18.80;68.10
10911;DHT22;5508;49.150;11.030;2023-08-30T13:17:01;18.60;68.30
10911;DHT22;5508;49.150;11.030;2023-08-30T13:20:02;18.30;72.00
10911;DHT22;5508;49.150;11.030;2023-08-30T13:23:03;18.00;71.50
10911;DHT22;5508;49.150;11.030;2023-08-30T13:26:04;17.90;73.30
10911;DHT22;5508;49.150;11.030;2023-08-30T13:29:04;17.70;74.10
10911;DHT22;5508;49.150;11.030;2023-08-30T13:32:05;17.70;74.30
10911;DHT22;5508;49.150;11.030;2023-08-30T13:35:06;17.80;74.20
10911;DHT22;5508;49.150;11.030;2023-08-30T13:38:07;17.80;76.50
10911;DHT22;5508;49.150;11.030;2023-08-30T13:41:07;18.00;77.00
10911;DHT22;5508;49.150;11.030;2023-08-30T13:44:08;18.00;77.70
10911;DHT22;5508;49.150;11.030;2023-08-30T13:47:08;18.20;78.80
10911;DHT22;5508;49.150;11.030;2023-08-30T13:50:09;18.40;77.20
10911;DHT22;5508;49.150;11.030;2023-08-30T13:53:10;18.60;77.50
10911;DHT22;5508;49.150;11.030;2023-08-30T13:56:10;18.70;75.10
10911;DHT22;5508;49.150;11.030;2023-08-30T13:59:11;18.80;74.70
10911;DHT22;5508;49.150;11.030;2023-08-30T14:02:12;18.50;75.10
10911;DHT22;5508;49.150;11.030;2023-08-30T14:05:12;18.60;76.10
10911;DHT22;5508;49.150;11.030;2023-08-30T14:08:13;18.70;74.00
10911;DHT22;5508;49.150;11.030;2023-08-30T14:11:14;18.60;74.00
10911;DHT22;5508;49.150;11.030;2023-08-30T14:14:15;18.30;74.50
10911;DHT22;5508;49.150;11.030;2023-08-30T14:17:15;17.90;76.10
10911;DHT22;5508;49.150;11.030;2023-08-30T14:20:16;17.70;79.40
10911;DHT22;5508;49.150;11.030;2023-08-30T14:23:17;17.80;81.10
10911;DHT22;5508;49.150;11.030;2023-08-30T14:26:17;18.10;82.30
10911;DHT22;5508;49.150;11.030;2023-08-30T14:29:20;18.20;78.50
10911;DHT22;5508;49.150;11.030;2023-08-30T14:32:22;18.10;78.50
10911;DHT22;5508;49.150;11.030;2023-08-30T14:35:22;17.90;81.20
10911;DHT22;5508;49.150;11.030;2023-08-30T14:38:26;18.00;78.70
10911;DHT22;5508;49.150;11.030;2023-08-30T14:41:26;18.10;78.50
10911;DHT22;5508;49.150;11.030;2023-08-30T14:44:38;17.90;78.50
10911;DHT22;5508;49.150;11.030;2023-08-30T14:47:39;18.00;79.50
10911;DHT22;5508;49.150;11.030;2023-08-30T14:50:39;17.90;77.20
10911;DHT22;5508;49.150;11.030;2023-08-30T14:53:40;18.10;78.40
10911;DHT22;5508;49.150;11.030;2023-08-30T14:56:40;17.80;79.00
10911;DHT22;5508;49.150;11.030;2023-08-30T14:59:41;17.70;81.50
10911;DHT22;5508;49.150;11.030;2023-08-30T15:02:41;17.80;83.10
10911;DHT22;5508;49.150;11.030;2023-08-30T15:05:42;17.80;81.80
10911;DHT22;5508;49.150;11.030;2023-08-30T15:08:43;17.60;80.20
10911;DHT22;5508;49.150;11.030;2023-08-30T15:11:44;17.60;82.30
10911;DHT22;5508;49.150;11.030;2023-08-30T15:14:45;17.80;79.50
10911;DHT22;5508;49.150;11.030;2023-08-30T15:17:46;17.70;78.90
10911;DHT22;5508;49.150;11.030;2023-08-30T15:20:47;17.50;79.40
10911;DHT22;5508;49.150;11.030;2023-08-30T15:23:49;17.50;79.40
10911;DHT22;5508;49.150;11.030;2023-08-30T15:26:50;17.40;80.10
10911;DHT22;5508;49.150;11.030;2023-08-30T15:29:50;17.30;80.00
10911;DHT22;5508;49.150;11.030;2023-08-30T15:32:53;17.20;81.50
10911;DHT22;5508;49.150;11.030;2023-08-30T15:35:57;17.20;79.40
10911;DHT22;5508;49.150;11.030;2023-08-30T15:39:00;17.20;79.60
10911;DHT22;5508;49.150;11.030;2023-08-30T15:42:00;17.30;78.60
10911;DHT22;5508;49.150;11.030;2023-08-30T15:45:02;17.40;79.10
10911;DHT22;5508;49.150;11.030;2023-08-30T15:48:04;17.50;79.20
10911;DHT22;5508;49.150;11.030;2023-08-30T15:51:04;17.40;79.10
10911;DHT22;5508;49.150;11.030;2023-08-30T15:54:05;17.30;80.10
10911;DHT22;5508;49.150;11.030;2023-08-30T15:57:06;17.40;80.20
10911;DHT22;5508;49.150;11.030;2023-08-30T16:00:07;17.40;79.10
10911;DHT22;5508;49.150;11.030;2023-08-30T16:03:10;17.50;78.40
10911;DHT22;5508;49.150;11.030;2023-08-30T16:06:11;17.50;79.90
10911;DHT22;5508;49.150;11.030;2023-08-30T16:09:12;17.40;79.80
10911;DHT22;5508;49.150;11.030;2023-08-30T16:12:12;17.30;79.30
10911;DHT22;5508;49.150;11.030;2023-08-30T16:15:13;17.30;79.80
10911;DHT22;5508;49.150;11.030;2023-08-30T16:18:13;17.20;79.20
10911;DHT22;5508;49.150;11.030;2023-08-30T16:21:16;17.10;77.70
10911;DHT22;5508;49.150;11.030;2023-08-30T16:24:16;17.00;80.80
10911;DHT22;5508;49.150;11.030;2023-08-30T16:27:17;17.00;81.20
10911;DHT22;5508;49.150;11.030;2023-08-30T16:30:18;17.00;81.70
10911;DHT22;5508;49.150;11.030;2023-08-30T16:33:18;16.90;81.60
10911;DHT22;5508;49.150;11.030;2023-08-30T16:36:19;16.70;83.70
10911;DHT22;5508;49.150;11.030;2023-08-30T16:39:20;16.70;80.90
10911;DHT22;5508;49.150;11.030;2023-08-30T16:42:20;16.60;81.00
10911;DHT22;5508;49.150;11.030;2023-08-30T16:45:21;16.50;80.70
10911;DHT22;5508;49.150;11.030;2023-08-30T16:48:22;16.50;82.00
10911;DHT22;5508;49.150;11.030;2023-08-30T16:51:22;16.40;83.70
10911;DHT22;5508;49.150;11.030;2023-08-30T16:54:23;16.30;84.50
10911;DHT22;5508;49.150;11.030;2023-08-30T16:57:23;16.30;86.00
10911;DHT22;5508;49.150;11.030;2023-08-30T17:00:28;16.30;85.30
10911;DHT22;5508;49.150;11.030;2023-08-30T17:03:29;16.30;87.10
10911;DHT22;5508;49.150;11.030;2023-08-30T17:06:30;16.20;87.70
10911;DHT22;5508;49.150;11.030;2023-08-30T17:09:33;16.20;88.80
10911;DHT22;5508;49.150;11.030;2023-08-30T17:12:34;16.20;88.70
10911;DHT22;5508;49.150;11.030;2023-08-30T17:15:35;16.10;89.80
10911;DHT22;5508;49.150;11.030;2023-08-30T17:18:36;16.10;89.90
10911;DHT22;5508;49.150;11.030;2023-08-30T17:21:40;16.00;91.30
10911;DHT22;5508;49.150;11.030;2023-08-30T17:24:40;15.90;90.30
10911;DHT22;5508;49.150;11.030;2023-08-30T17:27:41;15.80;91.10
10911;DHT22;5508;49.150;11.030;2023-08-30T17:30:43;15.70;91.20
10911;DHT22;5508;49.150;11.030;2023-08-30T17:33:44;15.60;92.40
10911;DHT22;5508;49.150;11.030;2023-08-30T17:36:44;15.60;93.00
10911;DHT22;5508;49.150;11.030;2023-08-30T17:39:47;15.50;92.90
10911;DHT22;5508;49.150;11.030;2023-08-30T17:42:48;15.50;94.30
10911;DHT22;5508;49.150;11.030;2023-08-30T17:45:48;15.50;93.00
10911;DHT22;5508;49.150;11.030;2023-08-30T17:48:49;15.40;94.80
10911;DHT22;5508;49.150;11.030;2023-08-30T17:51:50;15.40;96.10
10911;DHT22;5508;49.150;11.030;2023-08-30T17:54:53;15.30;95.60
10911;DHT22;5508;49.150;11.030;2023-08-30T17:57:53;15.20;95.40
10911;DHT22;5508;49.150;11.030;2023-08-30T18:00:56;15.20;96.20
10911;DHT22;5508;49.150;11.030;2023-08-30T18:03:59;15.20;96.50
10911;DHT22;5508;49.150;11.030;2023-08-30T18:07:01;15.20;95.90
10911;DHT22;5508;49.150;11.030;2023-08-30T18:10:04;15.10;96.90
10911;DHT22;5508;49.150;11.030;2023-08-30T18:13:05;15.10;97.40
10911;DHT22;5508;49.150;11.030;2023-08-30T18:16:05;15.10;95.90
10911;DHT22;5508;49.150;11.030;2023-08-30T18:19:06;15.00;96.80
10911;DHT22;5508;49.150;11.030;2023-08-30T18:22:06;14.90;97.60
10911;DHT22;5508;49.150;11.030;2023-08-30T18:25:08;14.80;98.30
10911;DHT22;5508;49.150;11.030;2023-08-30T18:28:08;14.80;98.30
10911;DHT22;5508;49.150;11.030;2023-08-30T18:31:09;14.70;99.70
10911;DHT22;5508;49.150;11.030;2023-08-30T18:34:10;14.70;99.10
10911;DHT22;5508;49.150;11.030;2023-08-30T18:37:14;14.60;99.90
10911;DHT22;5508;49.150;11.030;2023-08-30T18:40:15;14.60;99.90
10911;DHT22;5508;49.150;11.030;2023-08-30T18:43:15;14.70;98.80
10911;DHT22;5508;49.150;11.030;2023-08-30T18:46:16;14.60;99.90
10911;DHT22;5508;49.150;11.030;2023-08-30T18:49:18;14.60;99.90
10911;DHT22;5508;49.150;11.030;2023-08-30T18:52:19;14.70;99.90
10911;DHT22;5508;49.150;11.030;2023-08-30T18:55:20;14.70;99.90
10911;DHT22;5508;49.150;11.030;2023-08-30T18:58:21;14.60;99.90
10911;DHT22;5508;49.150;11.030;2023-08-30T19:01:21;14.70;99.70
10911;DHT22;5508;49.150;11.030;2023-08-30T19:04:22;14.60;99.90
10911;DHT22;5508;49.150;11.030;2023-08-30T19:07:22;14.50;99.90
10911;DHT22;5508;49.150;11.030;2023-08-30T19:10:23;14.50;99.90
10911;DHT22;5508;49.150;11.030;2023-08-30T19:13:24;14.50;99.90
10911;DHT22;5508;49.150;11.030;2023-08-30T19:16:24;14.50;99.10